sensor_id;sensor_type;location;lat;lon;timestamp;pressure;altitude;pressure_sealevel;temperature;humidity
78407;BME280;67692;51.074;-1.790;2023-04-06T00:02:15;100978.03;;;10.28;85.16
78407;BME280;67692;51.074;-1.790;2023-04-06T00:04:42;100974.63;;;10.28;85.17
78407;BME280;67692;51.074;-1.790;2023-04-06T00:07:09;100972.88;;;10.28;85.09
78407;BME280;67692;51.074;-1.790;2023-04-06T00:09:35;100971.94;;;10.29;85.05
78407;BME280;67692;51.074;-1.790;2023-04-06T00:12:02;100970.28;;;10.28;85.16
78407;BME280;67692;51.074;-1.790;2023-04-06T00:14:29;100967.59;;;10.30;84.97
78407;BME280;67692;51.074;-1.790;2023-04-06T00:16:57;100964.16;;;10.29;85.06
78407;BME280;67692;51.074;-1.790;2023-04-06T00:19:23;100964.16;;;10.29;85.07
78407;BME280;67692;51.074;-1.790;2023-04-06T00:21:50;100960.00;;;10.27;85.27
78407;BME280;67692;51.074;-1.790;2023-04-06T00:24:17;100966.91;;;10.26;85.24
78407;BME280;67692;51.074;-1.790;2023-04-06T00:26:43;100959.09;;;10.28;84.93
78407;BME280;67692;51.074;-1.790;2023-04-06T00:29:10;100960.56;;;10.32;84.79
78407;BME280;67692;51.074;-1.790;2023-04-06T00:31:37;100960.66;;;10.30;85.25
78407;BME280;67692;51.074;-1.790;2023-04-06T00:34:05;100951.13;;;10.31;85.41
78407;BME280;67692;51.074;-1.790;2023-04-06T00:36:32;100954.44;;;10.33;85.26
78407;BME280;67692;51.074;-1.790;2023-04-06T00:38:59;100955.47;;;10.30;85.13
78407;BME280;67692;51.074;-1.790;2023-04-06T00:41:25;100947.59;;;10.32;85.14
78407;BME280;67692;51.074;-1.790;2023-04-06T00:43:53;100937.16;;;10.33;84.75
78407;BME280;67692;51.074;-1.790;2023-04-06T00:46:20;100943.25;;;10.32;85.17
78407;BME280;67692;51.074;-1.790;2023-04-06T00:48:46;100938.09;;;10.32;85.35
78407;BME280;67692;51.074;-1.790;2023-04-06T00:51:15;100937.16;;;10.33;85.35
78407;BME280;67692;51.074;-1.790;2023-04-06T00:53:41;100931.16;;;10.33;85.30
78407;BME280;67692;51.074;-1.790;2023-04-06T00:56:08;100935.50;;;10.32;85.34
78407;BME280;67692;51.074;-1.790;2023-04-06T00:58:35;100929.09;;;10.38;85.36
78407;BME280;67692;51.074;-1.790;2023-04-06T01:01:03;100927.53;;;10.35;85.42
78407;BME280;67692;51.074;-1.790;2023-04-06T01:03:29;100918.31;;;10.31;85.35
78407;BME280;67692;51.074;-1.790;2023-04-06T01:05:56;100919.66;;;10.37;85.36
78407;BME280;67692;51.074;-1.790;2023-04-06T01:08:25;100911.78;;;10.38;85.18
78407;BME280;67692;51.074;-1.790;2023-04-06T01:10:52;100918.63;;;10.39;85.37
78407;BME280;67692;51.074;-1.790;2023-04-06T01:13:18;100911.63;;;10.41;85.05
78407;BME280;67692;51.074;-1.790;2023-04-06T01:15:46;100906.63;;;10.38;85.28
78407;BME280;67692;51.074;-1.790;2023-04-06T01:18:13;100906.44;;;10.41;85.24
78407;BME280;67692;51.074;-1.790;2023-04-06T01:20:40;100899.56;;;10.40;85.27
78407;BME280;67692;51.074;-1.790;2023-04-06T01:23:08;100899.41;;;10.43;85.34
78407;BME280;67692;51.074;-1.790;2023-04-06T01:25:34;100891.72;;;10.42;85.26
78407;BME280;67692;51.074;-1.790;2023-04-06T01:28:01;100889.03;;;10.43;85.22
78407;BME280;67692;51.074;-1.790;2023-04-06T01:30:28;100882.22;;;10.42;85.52
78407;BME280;67692;51.074;-1.790;2023-04-06T01:32:55;100881.56;;;10.39;85.35
78407;BME280;67692;51.074;-1.790;2023-04-06T01:35:22;100877.41;;;10.36;85.52
78407;BME280;67692;51.074;-1.790;2023-04-06T01:37:49;100873.06;;;10.37;85.48
78407;BME280;67692;51.074;-1.790;2023-04-06T01:40:17;100876.22;;;10.42;85.56
78407;BME280;67692;51.074;-1.790;2023-04-06T01:42:43;100859.84;;;10.41;85.62
78407;BME280;67692;51.074;-1.790;2023-04-06T01:45:11;100867.50;;;10.43;85.31
78407;BME280;67692;51.074;-1.790;2023-04-06T01:47:37;100861.50;;;10.42;85.50
78407;BME280;67692;51.074;-1.790;2023-04-06T01:50:04;100856.13;;;10.46;85.39
78407;BME280;67692;51.074;-1.790;2023-04-06T01:52:32;100855.28;;;10.45;85.64
78407;BME280;67692;51.074;-1.790;2023-04-06T01:54:59;100852.81;;;10.43;85.28
78407;BME280;67692;51.074;-1.790;2023-04-06T01:57:27;100850.72;;;10.49;85.28
78407;BME280;67692;51.074;-1.790;2023-04-06T01:59:54;100849.06;;;10.48;85.32
78407;BME280;67692;51.074;-1.790;2023-04-06T02:02:21;100841.19;;;10.49;85.26
78407;BME280;67692;51.074;-1.790;2023-04-06T02:04:47;100841.19;;;10.49;85.49
78407;BME280;67692;51.074;-1.790;2023-04-06T02:07:14;100835.09;;;10.50;85.59
78407;BME280;67692;51.074;-1.790;2023-04-06T02:09:41;100838.72;;;10.48;85.66
78407;BME280;67692;51.074;-1.790;2023-04-06T02:12:08;100834.97;;;10.52;85.29
78407;BME280;67692;51.074;-1.790;2023-04-06T02:14:36;100845.97;;;10.55;85.76
78407;BME280;67692;51.074;-1.790;2023-04-06T02:17:02;100828.66;;;10.56;85.55
78407;BME280;67692;51.074;-1.790;2023-04-06T02:19:29;100828.66;;;10.56;85.63
78407;BME280;67692;51.074;-1.790;2023-04-06T02:21:56;100822.59;;;10.57;85.50
78407;BME280;67692;51.074;-1.790;2023-04-06T02:24:23;100824.41;;;10.55;85.69
78407;BME280;67692;51.074;-1.790;2023-04-06T02:26:49;100820.06;;;10.55;85.66
78407;BME280;67692;51.074;-1.790;2023-04-06T02:29:16;100813.88;;;10.58;85.75
78407;BME280;67692;51.074;-1.790;2023-04-06T02:31:44;100813.06;;;10.57;85.78
78407;BME280;67692;51.074;-1.790;2023-04-06T02:34:11;100814.59;;;10.60;85.66
78407;BME280;67692;51.074;-1.790;2023-04-06T02:36:42;100806.00;;;10.59;85.53
78407;BME280;67692;51.074;-1.790;2023-04-06T02:39:10;100806.22;;;10.56;85.80
78407;BME280;67692;51.074;-1.790;2023-04-06T02:41:36;100801.34;;;10.64;85.70
78407;BME280;67692;51.074;-1.790;2023-04-06T02:44:03;100803.09;;;10.64;85.58
78407;BME280;67692;51.074;-1.790;2023-04-06T02:46:30;100794.28;;;10.66;85.39
78407;BME280;67692;51.074;-1.790;2023-04-06T02:48:58;100796.06;;;10.66;85.43
78407;BME280;67692;51.074;-1.790;2023-04-06T02:51:25;100797.72;;;10.67;85.28
78407;BME280;67692;51.074;-1.790;2023-04-06T02:53:52;100792.75;;;10.64;85.48
78407;BME280;67692;51.074;-1.790;2023-04-06T02:56:19;100800.41;;;10.65;85.61
78407;BME280;67692;51.074;-1.790;2023-04-06T02:58:46;100791.69;;;10.66;85.55
78407;BME280;67692;51.074;-1.790;2023-04-06T03:01:13;100794.19;;;10.68;85.54
78407;BME280;67692;51.074;-1.790;2023-04-06T03:03:40;100796.06;;;10.66;85.77
78407;BME280;67692;51.074;-1.790;2023-04-06T03:06:08;100784.03;;;10.65;85.80
78407;BME280;67692;51.074;-1.790;2023-04-06T03:08:34;100787.88;;;10.72;85.49
78407;BME280;67692;51.074;-1.790;2023-04-06T03:11:01;100787.88;;;10.72;85.50
78407;BME280;67692;51.074;-1.790;2023-04-06T03:13:28;100775.94;;;10.69;85.43
78407;BME280;67692;51.074;-1.790;2023-04-06T03:15:55;100778.66;;;10.68;85.64
78407;BME280;67692;51.074;-1.790;2023-04-06T03:18:23;100781.94;;;10.70;85.52
78407;BME280;67692;51.074;-1.790;2023-04-06T03:20:50;100782.16;;;10.67;85.65
78407;BME280;67692;51.074;-1.790;2023-04-06T03:23:20;100772.53;;;10.69;85.73
78407;BME280;67692;51.074;-1.790;2023-04-06T03:25:47;100762.59;;;10.63;85.79
78407;BME280;67692;51.074;-1.790;2023-04-06T03:28:13;100763.22;;;10.66;85.95
78407;BME280;67692;51.074;-1.790;2023-04-06T03:30:40;100766.75;;;10.65;85.83
78407;BME280;67692;51.074;-1.790;2023-04-06T03:33:06;100764.16;;;10.65;86.02
78407;BME280;67692;51.074;-1.790;2023-04-06T03:35:33;100763.31;;;10.65;86.13
78407;BME280;67692;51.074;-1.790;2023-04-06T03:38:02;100755.16;;;10.71;85.79
78407;BME280;67692;51.074;-1.790;2023-04-06T03:40:29;100755.88;;;10.73;85.73
78407;BME280;67692;51.074;-1.790;2023-04-06T03:42:56;100745.09;;;10.66;85.88
78407;BME280;67692;51.074;-1.790;2023-04-06T03:45:23;100746.56;;;10.70;86.14
78407;BME280;67692;51.074;-1.790;2023-04-06T03:47:49;100739.41;;;10.74;85.61
78407;BME280;67692;51.074;-1.790;2023-04-06T03:50:16;100739.28;;;10.76;85.95
78407;BME280;67692;51.074;-1.790;2023-04-06T03:52:43;100734.94;;;10.76;85.85
78407;BME280;67692;51.074;-1.790;2023-04-06T03:55:09;100742.19;;;10.71;86.05
78407;BME280;67692;51.074;-1.790;2023-04-06T03:57:37;100743.09;;;10.70;85.72
78407;BME280;67692;51.074;-1.790;2023-04-06T04:00:05;100734.84;;;10.65;86.08
78407;BME280;67692;51.074;-1.790;2023-04-06T04:02:32;100740.72;;;10.67;86.04
78407;BME280;67692;51.074;-1.790;2023-04-06T04:04:59;100727.28;;;10.62;86.36
78407;BME280;67692;51.074;-1.790;2023-04-06T04:07:25;100721.50;;;10.58;86.30
78407;BME280;67692;51.074;-1.790;2023-04-06T04:09:52;100717.13;;;10.59;85.44
78407;BME280;67692;51.074;-1.790;2023-04-06T04:12:19;100707.91;;;10.55;85.45
78407;BME280;67692;51.074;-1.790;2023-04-06T04:14:47;100703.66;;;10.54;84.82
78407;BME280;67692;51.074;-1.790;2023-04-06T04:17:13;100712.38;;;10.53;83.78
78407;BME280;67692;51.074;-1.790;2023-04-06T04:19:40;100702.22;;;10.37;84.98
78407;BME280;67692;51.074;-1.790;2023-04-06T04:22:06;100706.91;;;10.32;85.36
78407;BME280;67692;51.074;-1.790;2023-04-06T04:24:33;100708.88;;;10.28;85.49
78407;BME280;67692;51.074;-1.790;2023-04-06T04:27:00;100712.28;;;10.29;85.23
78407;BME280;67692;51.074;-1.790;2023-04-06T04:29:27;100728.66;;;10.29;85.29
78407;BME280;67692;51.074;-1.790;2023-04-06T04:31:55;100721.72;;;10.30;85.38
78407;BME280;67692;51.074;-1.790;2023-04-06T04:34:22;100738.34;;;10.26;85.39
78407;BME280;67692;51.074;-1.790;2023-04-06T04:36:50;100745.09;;;10.28;85.18
78407;BME280;67692;51.074;-1.790;2023-04-06T04:39:17;100758.97;;;10.27;84.48
78407;BME280;67692;51.074;-1.790;2023-04-06T04:41:43;100740.94;;;10.26;83.79
78407;BME280;67692;51.074;-1.790;2023-04-06T04:44:10;100740.31;;;10.22;83.69
78407;BME280;67692;51.074;-1.790;2023-04-06T04:46:37;100736.91;;;10.22;84.42
78407;BME280;67692;51.074;-1.790;2023-04-06T04:49:05;100755.03;;;10.22;83.96
78407;BME280;67692;51.074;-1.790;2023-04-06T04:51:32;100759.53;;;10.18;84.16
78407;BME280;67692;51.074;-1.790;2023-04-06T04:53:59;100763.69;;;10.21;84.77
78407;BME280;67692;51.074;-1.790;2023-04-06T04:56:25;100749.19;;;10.18;84.25
78407;BME280;67692;51.074;-1.790;2023-04-06T04:58:52;100752.72;;;10.17;84.10
78407;BME280;67692;51.074;-1.790;2023-04-06T05:01:19;100745.06;;;10.16;83.90
78407;BME280;67692;51.074;-1.790;2023-04-06T05:03:46;100737.28;;;10.16;84.46
78407;BME280;67692;51.074;-1.790;2023-04-06T05:06:14;100737.41;;;10.14;83.85
78407;BME280;67692;51.074;-1.790;2023-04-06T05:08:41;100735.75;;;10.13;83.91
78407;BME280;67692;51.074;-1.790;2023-04-06T05:11:08;100739.06;;;10.15;83.55
78407;BME280;67692;51.074;-1.790;2023-04-06T05:13:35;100732.22;;;10.14;83.73
78407;BME280;67692;51.074;-1.790;2023-04-06T05:16:01;100741.00;;;10.11;83.82
78407;BME280;67692;51.074;-1.790;2023-04-06T05:18:28;100745.22;;;10.12;83.83
78407;BME280;67692;51.074;-1.790;2023-04-06T05:20:55;100733.97;;;10.13;84.10
78407;BME280;67692;51.074;-1.790;2023-04-06T05:23:23;100723.72;;;10.12;83.63
78407;BME280;67692;51.074;-1.790;2023-04-06T05:25:50;100730.56;;;10.13;83.92
78407;BME280;67692;51.074;-1.790;2023-04-06T05:28:17;100725.56;;;10.10;83.92
78407;BME280;67692;51.074;-1.790;2023-04-06T05:30:44;100727.66;;;10.05;84.17
78407;BME280;67692;51.074;-1.790;2023-04-06T05:33:12;100734.56;;;10.04;84.25
78407;BME280;67692;51.074;-1.790;2023-04-06T05:35:38;100730.44;;;10.02;84.20
78407;BME280;67692;51.074;-1.790;2023-04-06T05:38:08;100737.66;;;9.97;84.26
78407;BME280;67692;51.074;-1.790;2023-04-06T05:40:36;100740.91;;;10.00;83.65
78407;BME280;67692;51.074;-1.790;2023-04-06T05:43:03;100742.00;;;9.96;84.22
78407;BME280;67692;51.074;-1.790;2023-04-06T05:45:30;100744.78;;;9.93;83.88
78407;BME280;67692;51.074;-1.790;2023-04-06T05:47:56;100748.53;;;9.89;84.20
78407;BME280;67692;51.074;-1.790;2023-04-06T05:50:23;100747.13;;;9.83;84.13
78407;BME280;67692;51.074;-1.790;2023-04-06T05:52:50;100750.66;;;9.82;84.39
78407;BME280;67692;51.074;-1.790;2023-04-06T05:55:16;100753.25;;;9.82;84.51
78407;BME280;67692;51.074;-1.790;2023-04-06T05:57:44;100759.44;;;9.80;84.46
78407;BME280;67692;51.074;-1.790;2023-04-06T06:00:12;100760.28;;;9.80;84.37
78407;BME280;67692;51.074;-1.790;2023-04-06T06:02:39;100768.59;;;9.86;84.25
78407;BME280;67692;51.074;-1.790;2023-04-06T06:05:08;100771.34;;;9.82;83.80
78407;BME280;67692;51.074;-1.790;2023-04-06T06:07:34;100770.25;;;9.87;83.51
78407;BME280;67692;51.074;-1.790;2023-04-06T06:10:01;100780.91;;;9.95;83.44
78407;BME280;67692;51.074;-1.790;2023-04-06T06:12:28;100783.28;;;9.98;83.78
78407;BME280;67692;51.074;-1.790;2023-04-06T06:14:56;100783.00;;;10.02;83.19
78407;BME280;67692;51.074;-1.790;2023-04-06T06:17:23;100780.41;;;10.02;83.45
78407;BME280;67692;51.074;-1.790;2023-04-06T06:19:49;100768.09;;;10.06;83.21
78407;BME280;67692;51.074;-1.790;2023-04-06T06:22:16;100777.63;;;10.05;83.68
78407;BME280;67692;51.074;-1.790;2023-04-06T06:24:42;100770.69;;;10.06;83.55
78407;BME280;67692;51.074;-1.790;2023-04-06T06:27:09;100770.69;;;10.06;83.40
78407;BME280;67692;51.074;-1.790;2023-04-06T06:29:36;100776.69;;;10.06;83.10
78407;BME280;67692;51.074;-1.790;2023-04-06T06:32:04;100787.16;;;10.05;83.54
78407;BME280;67692;51.074;-1.790;2023-04-06T06:34:31;100785.28;;;10.07;83.70
78407;BME280;67692;51.074;-1.790;2023-04-06T06:36:57;100792.84;;;10.10;83.26
78407;BME280;67692;51.074;-1.790;2023-04-06T06:39:25;100789.31;;;10.11;83.43
78407;BME280;67692;51.074;-1.790;2023-04-06T06:41:51;100780.25;;;10.18;83.24
78407;BME280;67692;51.074;-1.790;2023-04-06T06:44:19;100786.25;;;10.19;83.26
78407;BME280;67692;51.074;-1.790;2023-04-06T06:46:46;100790.59;;;10.18;83.05
78407;BME280;67692;51.074;-1.790;2023-04-06T06:49:15;100793.84;;;10.22;82.76
78407;BME280;67692;51.074;-1.790;2023-04-06T06:51:42;100793.53;;;10.26;82.44
78407;BME280;67692;51.074;-1.790;2023-04-06T06:54:09;100789.38;;;10.24;81.77
78407;BME280;67692;51.074;-1.790;2023-04-06T06:56:35;100795.66;;;10.20;82.58
78407;BME280;67692;51.074;-1.790;2023-04-06T06:59:03;100803.63;;;10.17;82.08
78407;BME280;67692;51.074;-1.790;2023-04-06T07:01:31;100795.66;;;10.20;82.31
78407;BME280;67692;51.074;-1.790;2023-04-06T07:03:58;100812.56;;;10.25;82.29
78407;BME280;67692;51.074;-1.790;2023-04-06T07:06:26;100807.22;;;10.28;82.36
78407;BME280;67692;51.074;-1.790;2023-04-06T07:08:53;100803.88;;;10.26;82.42
78407;BME280;67692;51.074;-1.790;2023-04-06T07:11:19;100795.38;;;10.24;81.34
78407;BME280;67692;51.074;-1.790;2023-04-06T07:13:46;100798.56;;;10.15;81.01
78407;BME280;67692;51.074;-1.790;2023-04-06T07:16:13;100784.59;;;10.18;82.21
78407;BME280;67692;51.074;-1.790;2023-04-06T07:18:39;100788.84;;;10.19;82.34
78407;BME280;67692;51.074;-1.790;2023-04-06T07:21:06;100777.47;;;10.21;81.41
78407;BME280;67692;51.074;-1.790;2023-04-06T07:23:34;100783.16;;;10.26;82.00
78407;BME280;67692;51.074;-1.790;2023-04-06T07:26:01;100778.66;;;10.30;81.44
78407;BME280;67692;51.074;-1.790;2023-04-06T07:28:27;100782.38;;;10.38;80.97
78407;BME280;67692;51.074;-1.790;2023-04-06T07:30:54;100781.97;;;10.45;81.88
78407;BME280;67692;51.074;-1.790;2023-04-06T07:33:20;100785.38;;;10.45;81.14
78407;BME280;67692;51.074;-1.790;2023-04-06T07:35:47;100783.81;;;10.55;80.82
78407;BME280;67692;51.074;-1.790;2023-04-06T07:38:14;100781.56;;;10.51;80.38
78407;BME280;67692;51.074;-1.790;2023-04-06T07:40:42;100789.75;;;10.57;81.18
78407;BME280;67692;51.074;-1.790;2023-04-06T07:43:08;100790.88;;;10.53;80.70
78407;BME280;67692;51.074;-1.790;2023-04-06T07:45:35;100787.22;;;10.56;80.16
78407;BME280;67692;51.074;-1.790;2023-04-06T07:48:02;100791.69;;;10.54;80.90
78407;BME280;67692;51.074;-1.790;2023-04-06T07:50:28;100793.34;;;10.55;80.39
78407;BME280;67692;51.074;-1.790;2023-04-06T07:52:55;100794.94;;;10.57;80.48
78407;BME280;67692;51.074;-1.790;2023-04-06T07:55:23;100808.88;;;10.55;80.71
78407;BME280;67692;51.074;-1.790;2023-04-06T07:57:51;100808.88;;;10.55;80.53
78407;BME280;67692;51.074;-1.790;2023-04-06T08:00:18;100812.00;;;10.60;80.09
78407;BME280;67692;51.074;-1.790;2023-04-06T08:02:44;100817.59;;;10.54;80.34
78407;BME280;67692;51.074;-1.790;2023-04-06T08:05:11;100808.69;;;10.58;80.75
78407;BME280;67692;51.074;-1.790;2023-04-06T08:07:38;100812.00;;;10.60;80.20
78407;BME280;67692;51.074;-1.790;2023-04-06T08:10:05;100820.06;;;10.68;79.37
78407;BME280;67692;51.074;-1.790;2023-04-06T08:12:32;100821.09;;;10.53;79.93
78407;BME280;67692;51.074;-1.790;2023-04-06T08:15:00;100823.81;;;10.51;80.42
78407;BME280;67692;51.074;-1.790;2023-04-06T08:17:27;100823.69;;;10.53;80.13
78407;BME280;67692;51.074;-1.790;2023-04-06T08:19:55;100820.38;;;10.51;79.96
78407;BME280;67692;51.074;-1.790;2023-04-06T08:22:22;100814.28;;;10.52;81.00
78407;BME280;67692;51.074;-1.790;2023-04-06T08:24:50;100819.66;;;10.49;80.46
78407;BME280;67692;51.074;-1.790;2023-04-06T08:27:16;100818.84;;;10.48;80.43
78407;BME280;67692;51.074;-1.790;2023-04-06T08:29:43;100819.56;;;10.50;79.14
78407;BME280;67692;51.074;-1.790;2023-04-06T08:32:11;100832.09;;;10.43;80.05
78407;BME280;67692;51.074;-1.790;2023-04-06T08:34:38;100829.19;;;10.48;79.79
78407;BME280;67692;51.074;-1.790;2023-04-06T08:37:04;100836.13;;;10.48;79.11
78407;BME280;67692;51.074;-1.790;2023-04-06T08:39:31;100840.88;;;10.54;79.65
78407;BME280;67692;51.074;-1.790;2023-04-06T08:41:59;100842.88;;;10.63;79.82
78407;BME280;67692;51.074;-1.790;2023-04-06T08:44:28;100841.00;;;10.65;78.89
78407;BME280;67692;51.074;-1.790;2023-04-06T08:46:55;100838.94;;;10.70;78.99
78407;BME280;67692;51.074;-1.790;2023-04-06T08:49:23;100859.47;;;10.86;75.96
78407;BME280;67692;51.074;-1.790;2023-04-06T08:51:49;100858.34;;;10.90;76.89
78407;BME280;67692;51.074;-1.790;2023-04-06T08:54:17;100854.19;;;10.87;77.19
78407;BME280;67692;51.074;-1.790;2023-04-06T08:56:44;100857.06;;;10.95;76.22
78407;BME280;67692;51.074;-1.790;2023-04-06T08:59:10;100857.78;;;10.97;74.54
78407;BME280;67692;51.074;-1.790;2023-04-06T09:01:39;100864.25;;;11.05;75.53
78407;BME280;67692;51.074;-1.790;2023-04-06T09:04:07;100860.50;;;11.09;75.22
78407;BME280;67692;51.074;-1.790;2023-04-06T09:06:37;100850.75;;;11.12;75.30
78407;BME280;67692;51.074;-1.790;2023-04-06T09:09:05;100862.56;;;11.16;72.26
78407;BME280;67692;51.074;-1.790;2023-04-06T09:11:42;100862.56;;;11.29;73.73
78407;BME280;67692;51.074;-1.790;2023-04-06T09:14:09;100872.72;;;11.32;73.15
78407;BME280;67692;51.074;-1.790;2023-04-06T09:16:39;100872.38;;;11.37;72.01
78407;BME280;67692;51.074;-1.790;2023-04-06T09:19:06;100871.88;;;11.44;72.47
78407;BME280;67692;51.074;-1.790;2023-04-06T09:21:33;100872.38;;;11.49;73.40
78407;BME280;67692;51.074;-1.790;2023-04-06T09:24:02;100879.00;;;11.53;72.16
78407;BME280;67692;51.074;-1.790;2023-04-06T09:26:29;100882.53;;;11.40;70.41
78407;BME280;67692;51.074;-1.790;2023-04-06T09:28:59;100872.81;;;11.43;71.65
78407;BME280;67692;51.074;-1.790;2023-04-06T09:31:27;100873.63;;;11.44;70.05
78407;BME280;67692;51.074;-1.790;2023-04-06T09:33:54;100882.44;;;11.41;70.55
78407;BME280;67692;51.074;-1.790;2023-04-06T09:36:29;100882.25;;;11.31;70.52
78407;BME280;67692;51.074;-1.790;2023-04-06T09:38:57;100875.31;;;11.32;68.36
78407;BME280;67692;51.074;-1.790;2023-04-06T09:41:27;100876.53;;;11.39;70.51
78407;BME280;67692;51.074;-1.790;2023-04-06T09:44:02;100879.09;;;11.52;71.63
78407;BME280;67692;51.074;-1.790;2023-04-06T09:46:31;100880.00;;;11.63;71.91
78407;BME280;67692;51.074;-1.790;2023-04-06T09:49:00;100887.75;;;11.89;68.92
78407;BME280;67692;51.074;-1.790;2023-04-06T09:51:30;100894.94;;;12.09;68.88
78407;BME280;67692;51.074;-1.790;2023-04-06T09:53:57;100892.00;;;12.14;67.73
78407;BME280;67692;51.074;-1.790;2023-04-06T09:56:31;100893.75;;;12.13;68.86
78407;BME280;67692;51.074;-1.790;2023-04-06T09:59:02;100897.81;;;12.17;68.18
78407;BME280;67692;51.074;-1.790;2023-04-06T10:01:32;100896.81;;;12.07;67.36
78407;BME280;67692;51.074;-1.790;2023-04-06T10:04:07;100896.00;;;12.07;66.62
78407;BME280;67692;51.074;-1.790;2023-04-06T10:06:38;100895.81;;;11.97;67.41
78407;BME280;67692;51.074;-1.790;2023-04-06T10:09:06;100897.91;;;11.92;67.35
78407;BME280;67692;51.074;-1.790;2023-04-06T10:11:35;100902.38;;;11.90;68.25
78407;BME280;67692;51.074;-1.790;2023-04-06T10:14:02;100902.91;;;11.82;67.00
78407;BME280;67692;51.074;-1.790;2023-04-06T10:16:30;100909.56;;;11.74;68.43
78407;BME280;67692;51.074;-1.790;2023-04-06T10:19:02;100913.59;;;11.78;67.17
78407;BME280;67692;51.074;-1.790;2023-04-06T10:21:32;100905.22;;;11.74;68.09
78407;BME280;67692;51.074;-1.790;2023-04-06T10:24:01;100910.59;;;11.84;66.22
78407;BME280;67692;51.074;-1.790;2023-04-06T10:26:28;100918.19;;;11.87;65.56
78407;BME280;67692;51.074;-1.790;2023-04-06T10:29:02;100907.69;;;11.88;64.48
78407;BME280;67692;51.074;-1.790;2023-04-06T10:31:29;100911.63;;;11.81;64.97
78407;BME280;67692;51.074;-1.790;2023-04-06T10:33:57;100911.63;;;11.81;64.29
78407;BME280;67692;51.074;-1.790;2023-04-06T10:36:26;100911.84;;;11.78;65.46
78407;BME280;67692;51.074;-1.790;2023-04-06T10:38:57;100922.94;;;11.68;65.02
78407;BME280;67692;51.074;-1.790;2023-04-06T10:41:31;100913.53;;;11.54;64.88
78407;BME280;67692;51.074;-1.790;2023-04-06T10:44:00;100922.69;;;11.47;65.97
78407;BME280;67692;51.074;-1.790;2023-04-06T10:46:28;100922.47;;;11.50;65.88
78407;BME280;67692;51.074;-1.790;2023-04-06T10:48:56;100927.22;;;11.56;68.35
78407;BME280;67692;51.074;-1.790;2023-04-06T10:51:24;100915.78;;;11.71;70.12
78407;BME280;67692;51.074;-1.790;2023-04-06T10:53:53;100921.19;;;11.81;69.42
78407;BME280;67692;51.074;-1.790;2023-04-06T10:56:22;100925.34;;;11.83;67.10
78407;BME280;67692;51.074;-1.790;2023-04-06T10:58:52;100930.09;;;11.77;68.81
78407;BME280;67692;51.074;-1.790;2023-04-06T11:01:23;100920.56;;;11.90;68.55
78407;BME280;67692;51.074;-1.790;2023-04-06T11:03:52;100928.41;;;12.01;65.76
78407;BME280;67692;51.074;-1.790;2023-04-06T11:06:20;100930.06;;;12.02;65.90
78407;BME280;67692;51.074;-1.790;2023-04-06T11:08:48;100925.97;;;12.11;67.28
78407;BME280;67692;51.074;-1.790;2023-04-06T11:11:16;100926.88;;;12.23;67.81
78407;BME280;67692;51.074;-1.790;2023-04-06T11:13:45;100931.84;;;12.26;65.20
78407;BME280;67692;51.074;-1.790;2023-04-06T11:16:13;100931.88;;;12.13;67.88
78407;BME280;67692;51.074;-1.790;2023-04-06T11:18:48;100927.38;;;12.04;69.44
78407;BME280;67692;51.074;-1.790;2023-04-06T11:21:15;100925.81;;;12.01;69.71
78407;BME280;67692;51.074;-1.790;2023-04-06T11:23:42;100930.25;;;11.99;69.69
78407;BME280;67692;51.074;-1.790;2023-04-06T11:26:10;100919.25;;;12.08;67.06
78407;BME280;67692;51.074;-1.790;2023-04-06T11:28:38;100918.78;;;12.14;66.62
78407;BME280;67692;51.074;-1.790;2023-04-06T11:31:05;100924.38;;;12.21;65.81
78407;BME280;67692;51.074;-1.790;2023-04-06T11:33:35;100923.78;;;12.17;65.31
78407;BME280;67692;51.074;-1.790;2023-04-06T11:36:04;100913.41;;;12.17;65.66
78407;BME280;67692;51.074;-1.790;2023-04-06T11:38:31;100925.31;;;12.20;66.51
78407;BME280;67692;51.074;-1.790;2023-04-06T11:40:58;100926.63;;;12.26;66.33
78407;BME280;67692;51.074;-1.790;2023-04-06T11:43:28;100914.06;;;12.32;65.79
78407;BME280;67692;51.074;-1.790;2023-04-06T11:46:02;100914.91;;;12.44;64.07
78407;BME280;67692;51.074;-1.790;2023-04-06T11:48:29;100907.63;;;12.49;66.38
78407;BME280;67692;51.074;-1.790;2023-04-06T11:50:57;100916.28;;;12.61;64.20
78407;BME280;67692;51.074;-1.790;2023-04-06T11:53:27;100917.47;;;12.68;64.54
78407;BME280;67692;51.074;-1.790;2023-04-06T11:55:54;100909.13;;;12.75;63.86
78407;BME280;67692;51.074;-1.790;2023-04-06T11:58:21;100919.06;;;12.81;64.08
78407;BME280;67692;51.074;-1.790;2023-04-06T12:00:47;100910.09;;;12.86;63.35
78407;BME280;67692;51.074;-1.790;2023-04-06T12:03:15;100916.34;;;12.83;62.14
78407;BME280;67692;51.074;-1.790;2023-04-06T12:05:43;100911.16;;;12.83;63.99
78407;BME280;67692;51.074;-1.790;2023-04-06T12:08:10;100927.25;;;12.88;59.79
78407;BME280;67692;51.074;-1.790;2023-04-06T12:10:38;100923.06;;;12.86;59.68
78407;BME280;67692;51.074;-1.790;2023-04-06T12:13:05;100922.25;;;12.74;59.14
78407;BME280;67692;51.074;-1.790;2023-04-06T12:15:31;100917.41;;;12.80;59.47
78407;BME280;67692;51.074;-1.790;2023-04-06T12:17:58;100905.63;;;12.88;60.58
78407;BME280;67692;51.074;-1.790;2023-04-06T12:20:25;100918.88;;;13.07;61.77
78407;BME280;67692;51.074;-1.790;2023-04-06T12:22:51;100908.31;;;13.32;60.44
78407;BME280;67692;51.074;-1.790;2023-04-06T12:25:18;100909.59;;;13.49;59.22
78407;BME280;67692;51.074;-1.790;2023-04-06T12:27:46;100922.94;;;13.56;58.73
78407;BME280;67692;51.074;-1.790;2023-04-06T12:30:13;100919.63;;;13.65;59.49
78407;BME280;67692;51.074;-1.790;2023-04-06T12:32:40;100934.19;;;13.79;57.39
78407;BME280;67692;51.074;-1.790;2023-04-06T12:35:08;100946.59;;;13.75;56.45
78407;BME280;67692;51.074;-1.790;2023-04-06T12:37:37;100942.41;;;13.05;59.26
78407;BME280;67692;51.074;-1.790;2023-04-06T12:40:04;100950.00;;;12.85;64.64
78407;BME280;67692;51.074;-1.790;2023-04-06T12:42:31;100960.94;;;12.66;64.83